Dayton, Maine
Current Conditions -  °F | °C
As of 1:15 PM on Thursday 29 Jan 2015 (Local Time) from KSFM Reporting Station
Clear Clear  
Wind Chill: -4°   Ceiling: Unl
Heat Index: -4°   Visibility: 10mi
Dew Point: -14°   Wind: 0mph
Humidity: 46%   Direction: NA
Pressure: 30.22"   Gusts: NA
Location:  43.4906°N, 70.5283°W
Report Text: KSFM 291815Z AUTO 00000KT 10SM CLR M04/M14 A3022 RMK AO1 P0001
Loading
Personal Weather Stations






























Interactive Weather Map New forecast layout! Learn more

10-Day Weather Forecast

Advertisements
Track Severe Weather on mobile